createdAt,value
2022-11-21T00:01:16.236Z,6.50
2022-11-21T00:03:44.532Z,8.15
2022-11-21T00:06:12.346Z,12.98
2022-11-21T00:08:41.421Z,9.55
2022-11-21T00:11:09.185Z,9.65
2022-11-21T00:13:37.103Z,10.57
2022-11-21T00:16:06.014Z,8.25
2022-11-21T00:18:34.761Z,12.02
2022-11-21T00:21:06.599Z,8.18
2022-11-21T00:23:34.722Z,8.30
2022-11-21T00:26:06.720Z,9.70
2022-11-21T00:28:34.942Z,7.03
2022-11-21T00:31:02.895Z,8.48
2022-11-21T00:33:30.706Z,11.20
2022-11-21T00:35:58.595Z,8.45
2022-11-21T00:38:28.070Z,8.55
2022-11-21T00:40:55.808Z,10.23
2022-11-21T00:43:24.924Z,7.70
2022-11-21T00:45:52.718Z,10.45
2022-11-21T00:48:20.507Z,7.90
2022-11-21T00:50:50.716Z,7.68
2022-11-21T00:53:18.461Z,9.32
2022-11-21T00:55:46.234Z,10.73
2022-11-21T00:58:14.012Z,9.35
2022-11-21T01:00:43.151Z,5.07
2022-11-21T01:03:10.952Z,8.68
2022-11-21T01:05:38.731Z,8.35
2022-11-21T01:08:06.705Z,8.30
2022-11-21T01:10:35.441Z,8.52
2022-11-21T01:13:03.256Z,7.50
2022-11-21T01:15:31.031Z,6.80
2022-11-21T01:18:00.130Z,9.43
2022-11-21T01:20:27.872Z,7.57
2022-11-21T01:22:55.628Z,8.02
2022-11-21T01:25:23.367Z,9.32
2022-11-21T01:27:51.095Z,7.00
2022-11-21T01:30:18.902Z,5.40
2022-11-21T01:32:49.274Z,5.57
2022-11-21T01:35:18.678Z,7.15
2022-11-21T01:37:48.061Z,7.63
2022-11-21T01:40:16.004Z,7.55
2022-11-21T01:43:02.243Z,8.30
2022-11-21T01:45:57.229Z,6.22
2022-11-21T01:48:30.832Z,7.00
2022-11-21T01:51:06.508Z,9.13
2022-11-21T01:53:35.028Z,8.52
2022-11-21T01:56:03.880Z,7.18
2022-11-21T01:58:34.320Z,7.10
2022-11-21T02:01:03.637Z,7.05
2022-11-21T02:03:36.313Z,7.25
2022-11-21T02:06:07.412Z,5.60
2022-11-21T02:08:35.336Z,6.07
2022-11-21T02:11:13.161Z,8.48
2022-11-21T02:13:41.401Z,11.77
2022-11-21T02:16:09.379Z,6.35
2022-11-21T02:18:37.241Z,9.32
2022-11-21T02:21:14.489Z,11.63
2022-11-21T02:23:49.257Z,10.35
2022-11-21T02:26:18.653Z,9.57
2022-11-21T02:28:46.647Z,10.45
2022-11-21T02:31:14.373Z,9.88
2022-11-21T02:33:42.150Z,8.77
2022-11-21T02:36:34.511Z,8.68
2022-11-21T02:39:02.847Z,9.23
2022-11-21T02:41:35.125Z,13.50
2022-11-21T02:44:08.328Z,13.13
2022-11-21T02:46:36.934Z,6.00
2022-11-21T02:49:10.202Z,8.38
2022-11-21T02:51:37.944Z,8.23
2022-11-21T02:54:05.744Z,10.65
2022-11-21T02:56:34.890Z,11.05
2022-11-21T02:59:02.900Z,8.35
2022-11-21T03:01:30.712Z,10.50
2022-11-21T03:03:58.430Z,11.23
2022-11-21T03:06:26.188Z,8.35
2022-11-21T03:08:53.889Z,9.05
2022-11-21T03:11:21.615Z,10.02
2022-11-21T03:13:50.719Z,7.10
2022-11-21T03:16:18.449Z,11.43
2022-11-21T03:18:46.182Z,10.45
2022-11-21T03:21:14.009Z,12.88
2022-11-21T03:23:41.734Z,11.43
2022-11-21T03:26:09.620Z,11.88
2022-11-21T03:28:37.376Z,14.50
2022-11-21T03:31:06.483Z,12.73
2022-11-21T03:33:34.220Z,10.73
2022-11-21T03:36:01.941Z,13.57
2022-11-21T03:38:29.762Z,11.23
2022-11-21T03:40:57.468Z,10.50
2022-11-21T03:43:25.197Z,11.32
2022-11-21T03:45:52.956Z,10.18
2022-11-21T03:48:22.053Z,16.98
2022-11-21T03:50:49.797Z,9.43
2022-11-21T03:53:17.564Z,12.32
2022-11-21T03:55:45.370Z,11.88
2022-11-21T03:58:13.130Z,9.18
2022-11-21T04:00:40.923Z,12.27
2022-11-21T04:03:08.684Z,9.70
2022-11-21T04:05:37.803Z,11.07
2022-11-21T04:08:06.141Z,13.07
2022-11-21T04:10:33.894Z,11.35
2022-11-21T04:13:01.672Z,12.80
2022-11-21T04:15:29.458Z,14.98
2022-11-21T04:17:57.287Z,10.48
2022-11-21T04:20:25.040Z,13.95
2022-11-21T04:22:54.093Z,11.73
2022-11-21T04:25:40.931Z,12.32
2022-11-21T04:28:08.903Z,12.63
2022-11-21T04:30:36.629Z,9.07
2022-11-21T04:33:04.327Z,13.32
2022-11-21T04:35:32.121Z,11.70
2022-11-21T04:38:01.296Z,12.90
2022-11-21T04:40:29.082Z,13.40
2022-11-21T04:42:56.945Z,15.73
2022-11-21T04:45:24.769Z,13.27
2022-11-21T04:47:52.555Z,12.35
2022-11-21T04:50:21.197Z,11.02
2022-11-21T04:52:52.893Z,10.52
2022-11-21T04:55:23.528Z,13.55
2022-11-21T04:57:51.554Z,12.38
2022-11-21T05:00:24.250Z,15.02
2022-11-21T05:02:52.480Z,10.45
2022-11-21T05:05:20.511Z,14.30
2022-11-21T05:07:48.292Z,10.70
2022-11-21T05:10:16.213Z,9.80
2022-11-21T05:13:02.543Z,12.20
2022-11-21T05:15:30.304Z,13.32
2022-11-21T05:18:00.679Z,10.40
2022-11-21T05:20:28.448Z,13.88
2022-11-21T05:22:56.196Z,13.95
2022-11-21T05:25:23.993Z,11.70
2022-11-21T05:27:56.829Z,12.90
2022-11-21T05:30:24.679Z,14.32
2022-11-21T05:32:52.497Z,14.32
2022-11-21T05:35:20.335Z,12.30
2022-11-21T05:37:48.094Z,12.63
2022-11-21T05:40:16.070Z,14.60
2022-11-21T05:43:01.287Z,14.30
2022-11-21T05:45:30.373Z,12.30
2022-11-21T05:47:58.157Z,13.63
2022-11-21T05:50:25.879Z,12.90
2022-11-21T05:52:53.750Z,12.50
2022-11-21T05:55:21.552Z,13.50
2022-11-21T05:57:49.359Z,12.50
2022-11-21T06:00:18.384Z,12.75
2022-11-21T06:03:06.499Z,10.57
2022-11-21T06:05:34.294Z,14.93
2022-11-21T06:08:02.050Z,12.27
2022-11-21T06:10:29.764Z,10.07
2022-11-21T06:13:01.018Z,15.45
2022-11-21T06:15:29.540Z,11.68
2022-11-21T06:18:01.050Z,15.45
2022-11-21T06:20:28.786Z,15.30
2022-11-21T06:22:56.530Z,12.07
2022-11-21T06:25:24.239Z,15.70
2022-11-21T06:27:51.965Z,13.38
2022-11-21T06:30:22.340Z,12.07
2022-11-21T06:32:50.317Z,14.20
2022-11-21T06:35:19.459Z,14.82
2022-11-21T06:37:53.352Z,13.73
2022-11-21T06:40:21.504Z,11.38
2022-11-21T06:42:49.290Z,15.18
2022-11-21T06:45:17.215Z,19.85
2022-11-21T06:47:44.942Z,15.05
2022-11-21T06:50:12.676Z,13.18
2022-11-21T06:52:41.822Z,16.13
2022-11-21T06:55:10.730Z,15.07
2022-11-21T06:57:38.555Z,14.82
2022-11-21T07:00:07.420Z,17.55
2022-11-21T07:02:35.146Z,15.55
2022-11-21T07:05:02.889Z,15.93
2022-11-21T07:07:30.748Z,18.52
2022-11-21T07:09:59.961Z,20.33
2022-11-21T07:12:45.000Z,20.55
2022-11-21T07:15:13.051Z,21.73
2022-11-21T07:17:41.017Z,24.58
2022-11-21T07:20:09.954Z,26.85
2022-11-21T07:22:37.724Z,21.10
2022-11-21T07:25:07.643Z,19.88
2022-11-21T07:27:35.499Z,37.35
2022-11-21T07:30:03.334Z,40.17
2022-11-21T07:32:31.197Z,31.55
2022-11-21T07:34:58.930Z,22.80
2022-11-21T07:37:27.261Z,26.15
2022-11-21T07:39:55.012Z,23.58
2022-11-21T07:42:24.230Z,32.42
2022-11-21T07:44:52.183Z,28.35
2022-11-21T07:47:19.959Z,14.60
2022-11-21T07:49:48.026Z,21.20
2022-11-21T07:52:15.743Z,23.77
2022-11-21T07:54:43.503Z,19.60
2022-11-21T07:57:11.301Z,13.02
2022-11-21T07:59:40.511Z,27.20
2022-11-21T08:02:08.338Z,18.48
2022-11-21T08:04:36.468Z,16.33
2022-11-21T08:07:04.306Z,12.02
2022-11-21T08:09:35.967Z,13.85
2022-11-21T08:12:06.966Z,25.80
2022-11-21T08:14:35.175Z,11.68
2022-11-21T08:17:04.502Z,10.65
2022-11-21T08:19:32.409Z,10.95
2022-11-21T08:22:00.488Z,14.70
2022-11-21T08:24:28.501Z,18.23
2022-11-21T08:26:56.390Z,15.02
2022-11-21T08:29:24.131Z,9.88
2022-11-21T08:31:51.893Z,11.32
2022-11-21T08:34:21.017Z,13.70
2022-11-21T08:36:48.735Z,12.02
2022-11-21T08:39:16.597Z,14.10
2022-11-21T08:42:05.441Z,14.35
2022-11-21T08:44:33.995Z,11.75
2022-11-21T08:47:03.027Z,11.25
2022-11-21T08:49:32.118Z,10.48
2022-11-21T08:51:59.854Z,13.82
2022-11-21T08:54:27.980Z,9.48
2022-11-21T08:56:55.859Z,9.60
2022-11-21T08:59:23.605Z,7.93
2022-11-21T09:01:52.820Z,11.13
2022-11-21T09:04:20.682Z,8.25
2022-11-21T09:06:49.999Z,9.40
2022-11-21T09:09:22.217Z,7.93
2022-11-21T09:11:52.792Z,7.40
2022-11-21T09:14:37.899Z,7.15
2022-11-21T09:17:23.206Z,8.57
2022-11-21T09:19:50.972Z,9.68
2022-11-21T09:22:20.095Z,7.18
2022-11-21T09:24:47.889Z,4.97
2022-11-21T09:27:15.782Z,5.00
2022-11-21T09:29:48.081Z,9.55
2022-11-21T09:32:18.949Z,6.82
2022-11-21T09:34:46.710Z,7.93
2022-11-21T09:37:14.451Z,8.20
2022-11-21T09:39:43.544Z,8.52
2022-11-21T09:42:32.705Z,9.43
2022-11-21T09:45:07.391Z,6.78
2022-11-21T09:47:38.144Z,8.13
2022-11-21T09:50:18.985Z,8.73
2022-11-21T09:52:51.953Z,7.68
2022-11-21T09:55:28.906Z,8.05
2022-11-21T09:57:58.725Z,7.05
2022-11-21T10:00:27.409Z,8.27
2022-11-21T10:02:56.316Z,7.10
2022-11-21T10:05:34.193Z,8.45
2022-11-21T10:08:08.524Z,7.53
2022-11-21T10:10:52.263Z,8.57
2022-11-21T10:13:32.090Z,6.88
2022-11-21T10:16:09.600Z,6.72
2022-11-21T10:18:55.587Z,5.88
2022-11-21T10:21:41.549Z,6.65
2022-11-21T10:24:34.232Z,6.78
2022-11-21T10:27:07.710Z,7.78
2022-11-21T10:29:39.563Z,6.97
2022-11-21T10:32:18.421Z,7.82
2022-11-21T10:34:47.746Z,10.02
2022-11-21T10:37:24.795Z,8.80
2022-11-21T10:39:54.403Z,7.03
2022-11-21T10:42:34.474Z,8.13
2022-11-21T10:45:19.273Z,11.38
2022-11-21T10:47:49.027Z,10.20
2022-11-21T10:50:29.797Z,8.85
2022-11-21T10:53:27.222Z,9.00
2022-11-21T10:56:04.566Z,11.18
2022-11-21T10:58:41.138Z,8.85
2022-11-21T11:01:20.412Z,8.30
2022-11-21T11:04:06.894Z,10.10
2022-11-21T11:06:38.163Z,6.30
2022-11-21T11:09:07.184Z,8.80
2022-11-21T11:11:35.247Z,8.25
2022-11-21T11:14:07.654Z,8.60
2022-11-21T11:16:41.644Z,8.40
2022-11-21T11:19:25.789Z,8.75
2022-11-21T11:22:00.153Z,7.18
2022-11-21T11:24:28.349Z,6.97
2022-11-21T11:27:01.387Z,7.57
2022-11-21T11:29:32.328Z,7.68
2022-11-21T11:32:04.197Z,6.78
2022-11-21T11:34:40.122Z,5.78
2022-11-21T11:37:13.932Z,6.07
2022-11-21T11:39:55.953Z,5.70
2022-11-21T11:43:34.179Z,5.07
2022-11-21T11:46:37.403Z,5.30
2022-11-21T11:49:20.473Z,6.95
2022-11-21T11:51:54.117Z,4.60
2022-11-21T11:54:27.683Z,5.35
2022-11-21T11:56:56.571Z,3.90
2022-11-21T11:59:29.561Z,4.68
2022-11-21T12:02:07.508Z,3.75
2022-11-21T12:04:47.531Z,4.57
2022-11-21T12:10:18.203Z,4.35
2022-11-21T12:12:50.955Z,3.55
2022-11-21T12:15:39.592Z,2.72
2022-11-21T12:18:19.300Z,1.70
2022-11-21T12:20:53.672Z,1.63
2022-11-21T12:23:23.832Z,1.88
2022-11-21T12:26:06.774Z,1.92
2022-11-21T12:28:47.107Z,3.22
2022-11-21T12:31:22.509Z,3.05
2022-11-21T12:34:03.934Z,2.47
2022-11-21T12:36:39.821Z,2.88
2022-11-21T12:39:54.406Z,3.25
2022-11-21T12:42:53.070Z,2.10
2022-11-21T12:45:33.283Z,2.17
2022-11-21T12:48:32.876Z,3.70
2022-11-21T12:51:51.828Z,3.90
2022-11-21T12:54:54.955Z,3.28
2022-11-21T12:58:00.277Z,3.00
2022-11-21T13:00:41.039Z,3.58
2022-11-21T13:03:31.028Z,4.70
2022-11-21T13:06:01.613Z,3.80
2022-11-21T13:08:35.955Z,4.97
2022-11-21T13:11:28.666Z,3.67
2022-11-21T13:14:08.265Z,4.05
2022-11-21T13:16:44.949Z,4.60
2022-11-21T13:19:21.525Z,4.82
2022-11-21T13:21:50.991Z,3.25
2022-11-21T13:24:56.293Z,4.90
2022-11-21T13:27:34.779Z,2.50
2022-11-21T13:30:28.861Z,4.05
2022-11-21T13:32:57.124Z,3.58
2022-11-21T13:36:07.876Z,4.68
2022-11-21T13:39:09.044Z,3.40
2022-11-21T13:42:23.639Z,11.02
2022-11-21T13:44:53.547Z,4.85
2022-11-21T13:47:57.821Z,6.82
2022-11-21T13:50:59.692Z,4.53
2022-11-21T13:54:00.924Z,9.60
2022-11-21T13:56:37.550Z,4.93
2022-11-21T13:59:20.806Z,3.85
2022-11-21T14:02:21.823Z,2.97
2022-11-21T14:05:19.392Z,4.97
2022-11-21T14:07:48.032Z,4.50
2022-11-21T14:10:33.676Z,6.35
2022-11-21T14:13:04.210Z,6.15
2022-11-21T14:15:42.139Z,9.60
2022-11-21T14:18:22.837Z,5.90
2022-11-21T14:20:53.906Z,3.72
2022-11-21T14:23:24.070Z,5.00
2022-11-21T14:25:56.317Z,5.00
2022-11-21T14:28:26.752Z,4.90
2022-11-21T14:30:59.094Z,3.17
2022-11-21T14:33:33.275Z,8.88
2022-11-21T14:36:05.012Z,4.72
2022-11-21T14:38:37.601Z,3.38
2022-11-21T14:41:29.471Z,8.70
2022-11-21T14:44:22.474Z,4.47
2022-11-21T14:46:52.247Z,4.90
2022-11-21T14:49:29.338Z,3.70
2022-11-21T14:52:07.244Z,5.75
2022-11-21T14:54:59.982Z,4.65
2022-11-21T14:57:34.436Z,3.60
2022-11-21T15:00:02.517Z,3.97
2022-11-21T15:02:32.619Z,8.23
2022-11-21T15:05:06.474Z,4.50
2022-11-21T15:07:41.236Z,6.50
2022-11-21T15:10:30.267Z,4.15
2022-11-21T15:13:04.292Z,5.80
2022-11-21T15:15:34.894Z,5.93
2022-11-21T15:18:28.008Z,4.32
2022-11-21T15:20:57.203Z,5.95
2022-11-21T15:23:29.595Z,4.80
2022-11-21T15:26:00.964Z,4.75
2022-11-21T15:28:30.067Z,3.03
2022-11-21T15:31:18.230Z,4.18
2022-11-21T15:34:27.323Z,7.82
2022-11-21T15:36:47.046Z,5.25
2022-11-21T15:39:20.548Z,3.88
2022-11-21T15:41:48.401Z,3.13
2022-11-21T15:44:22.226Z,5.40
2022-11-21T15:46:52.807Z,5.30
2022-11-21T15:49:35.887Z,4.50
2022-11-21T15:52:13.353Z,4.13
2022-11-21T15:54:41.392Z,5.50
2022-11-21T15:57:09.923Z,5.55
2022-11-21T15:59:37.922Z,3.75
2022-11-21T16:02:05.772Z,4.45
2022-11-21T16:04:33.696Z,3.25
2022-11-21T16:07:01.672Z,6.72
2022-11-21T16:09:31.220Z,5.53
2022-11-21T16:11:59.217Z,3.55
2022-11-21T16:14:27.005Z,6.38
2022-11-21T16:16:54.817Z,4.07
2022-11-21T16:19:22.633Z,5.28
2022-11-21T16:21:50.455Z,4.50
2022-11-21T16:24:18.433Z,5.13
2022-11-21T16:26:49.213Z,7.38
2022-11-21T16:29:17.043Z,6.32
2022-11-21T16:31:44.904Z,4.18
2022-11-21T16:34:12.671Z,4.30
2022-11-21T16:36:40.576Z,8.13
2022-11-21T16:39:13.560Z,5.75
2022-11-21T16:41:44.578Z,7.90
2022-11-21T16:44:16.253Z,3.50
2022-11-21T16:46:47.212Z,8.45
2022-11-21T16:49:15.132Z,6.93
2022-11-21T16:51:42.937Z,6.07
2022-11-21T16:54:10.680Z,4.45
2022-11-21T16:56:38.591Z,5.28
2022-11-21T16:59:06.497Z,5.43
2022-11-21T17:01:35.747Z,6.15
2022-11-21T17:04:03.628Z,6.13
2022-11-21T17:06:32.528Z,6.60
2022-11-21T17:09:01.943Z,6.97
2022-11-21T17:11:31.985Z,2.90
2022-11-21T17:14:02.154Z,5.28
2022-11-21T17:16:30.151Z,7.00
2022-11-21T17:19:01.412Z,3.67
2022-11-21T17:21:30.714Z,5.93
2022-11-21T17:23:59.166Z,4.43
2022-11-21T17:26:28.704Z,5.50
2022-11-21T17:28:58.499Z,4.47
2022-11-21T17:31:27.011Z,6.45
2022-11-21T17:33:57.396Z,3.00
2022-11-21T17:36:28.003Z,8.20
2022-11-21T17:38:56.287Z,4.22
2022-11-21T17:41:25.940Z,7.95
2022-11-21T17:43:55.871Z,4.60
2022-11-21T17:46:25.188Z,8.15
2022-11-21T17:48:57.220Z,5.80
2022-11-21T17:51:29.219Z,6.60
2022-11-21T17:53:57.621Z,5.97
2022-11-21T17:56:27.868Z,4.72
2022-11-21T17:58:55.863Z,7.53
2022-11-21T18:01:23.908Z,7.45
2022-11-21T18:03:56.415Z,7.30
2022-11-21T18:06:27.410Z,8.27
2022-11-21T18:08:57.017Z,8.43
2022-11-21T18:11:25.157Z,8.93
2022-11-21T18:13:52.988Z,7.32
2022-11-21T18:16:22.859Z,7.20
2022-11-21T18:18:50.842Z,7.45
2022-11-21T18:21:20.496Z,10.15
2022-11-21T18:23:49.631Z,6.70
2022-11-21T18:26:20.523Z,7.00
2022-11-21T18:29:01.649Z,11.05
2022-11-21T18:31:35.910Z,8.05
2022-11-21T18:34:06.543Z,6.82
2022-11-21T18:36:34.960Z,6.47
2022-11-21T18:39:10.522Z,8.60
2022-11-21T18:41:41.893Z,6.00
2022-11-21T18:44:10.233Z,7.13
2022-11-21T18:46:39.434Z,8.43
2022-11-21T18:49:08.451Z,8.90
2022-11-21T18:51:37.471Z,7.45
2022-11-21T18:54:09.625Z,6.55
2022-11-21T18:56:38.792Z,8.18
2022-11-21T18:59:07.729Z,6.97
2022-11-21T19:01:37.395Z,8.02
2022-11-21T19:04:06.010Z,14.77
2022-11-21T19:06:34.300Z,9.55
2022-11-21T19:09:02.308Z,7.97
2022-11-21T19:11:31.583Z,11.02
2022-11-21T19:14:00.405Z,10.45
2022-11-21T19:16:30.958Z,11.75
2022-11-21T19:19:32.393Z,8.90
2022-11-21T19:21:47.334Z,11.95
2022-11-21T19:24:15.766Z,11.30
2022-11-21T19:26:44.982Z,10.55
2022-11-21T19:29:12.965Z,9.50
2022-11-21T19:31:45.252Z,9.98
2022-11-21T19:34:14.221Z,7.78
2022-11-21T19:36:42.703Z,9.45
2022-11-21T19:39:10.689Z,10.90
2022-11-21T19:41:38.631Z,7.78
2022-11-21T19:44:07.886Z,7.28
2022-11-21T19:46:38.188Z,6.63
2022-11-21T19:49:07.563Z,8.55
2022-11-21T19:51:38.032Z,7.63
2022-11-21T19:54:07.615Z,5.60
2022-11-21T19:56:36.213Z,9.00
2022-11-21T19:59:04.577Z,6.10
2022-11-21T20:01:35.957Z,7.75
2022-11-21T20:04:05.961Z,7.47
2022-11-21T20:06:36.063Z,6.95
2022-11-21T20:09:06.780Z,7.15
2022-11-21T20:11:35.498Z,9.73
2022-11-21T20:14:03.735Z,9.63
2022-11-21T20:16:36.222Z,9.25
2022-11-21T20:19:06.962Z,6.13
2022-11-21T20:21:35.122Z,7.63
2022-11-21T20:24:03.633Z,5.45
2022-11-21T20:26:31.912Z,9.05
2022-11-21T20:29:00.376Z,6.90
2022-11-21T20:31:30.057Z,7.68
2022-11-21T20:34:01.071Z,7.50
2022-11-21T20:36:30.678Z,8.25
2022-11-21T20:39:00.100Z,7.28
2022-11-21T20:41:30.129Z,5.88
2022-11-21T20:45:11.361Z,4.97
2022-11-21T20:46:48.062Z,8.73
2022-11-21T20:49:17.798Z,8.20
2022-11-21T20:54:33.591Z,6.82
2022-11-21T20:57:01.500Z,6.30
2022-11-21T20:59:29.651Z,9.23
2022-11-21T21:01:57.859Z,8.55
2022-11-21T21:04:27.050Z,4.78
2022-11-21T21:06:54.950Z,6.65
2022-11-21T21:09:22.844Z,11.05
2022-11-21T21:11:52.727Z,11.38
2022-11-21T21:14:21.897Z,7.00
2022-11-21T21:16:50.519Z,7.47
2022-11-21T21:19:19.018Z,6.35
2022-11-21T21:21:48.436Z,8.73
2022-11-21T21:24:17.212Z,5.97
2022-11-21T21:26:47.122Z,8.20
2022-11-21T21:29:18.201Z,7.97
2022-11-21T21:31:51.188Z,5.35
2022-11-21T21:34:19.894Z,9.02
2022-11-21T21:36:49.519Z,8.73
2022-11-21T21:39:17.326Z,8.73
2022-11-21T21:41:46.673Z,7.03
2022-11-21T21:44:15.839Z,10.57
2022-11-21T21:46:43.833Z,12.75
2022-11-21T21:49:12.143Z,8.50
2022-11-21T21:51:40.310Z,9.15
2022-11-21T21:54:17.392Z,7.30
2022-11-21T21:56:46.648Z,7.85
2022-11-21T21:59:15.098Z,9.90
2022-11-21T22:01:43.812Z,10.02
2022-11-21T22:04:13.255Z,9.82
2022-11-21T22:06:41.413Z,7.30
2022-11-21T22:09:10.760Z,7.30
2022-11-21T22:11:39.859Z,10.40
2022-11-21T22:14:11.895Z,13.70
2022-11-21T22:16:39.969Z,7.60
2022-11-21T22:19:08.160Z,9.63
2022-11-21T22:21:37.521Z,8.35
2022-11-21T22:24:38.558Z,8.48
2022-11-21T22:27:00.409Z,8.52
2022-11-21T22:29:28.196Z,7.97
2022-11-21T22:31:55.995Z,9.57
2022-11-21T22:34:23.931Z,11.18
2022-11-21T22:36:51.804Z,12.52
2022-11-21T22:39:19.927Z,7.70
2022-11-21T22:41:47.713Z,7.40
2022-11-21T22:44:17.095Z,9.52
2022-11-21T22:46:44.885Z,11.35
2022-11-21T22:49:12.655Z,9.68
2022-11-21T22:51:40.470Z,8.68
2022-11-21T22:54:08.355Z,7.72
2022-11-21T22:56:36.365Z,10.85
2022-11-21T22:59:04.320Z,7.80
2022-11-21T23:01:34.294Z,7.85
2022-11-21T23:04:02.206Z,8.82
2022-11-21T23:06:29.934Z,9.85
2022-11-21T23:08:58.597Z,10.45
2022-11-21T23:11:28.478Z,9.35
2022-11-21T23:13:57.724Z,9.57
2022-11-21T23:16:26.577Z,12.63
2022-11-21T23:18:56.847Z,11.20
2022-11-21T23:21:24.703Z,13.32
2022-11-21T23:23:52.497Z,10.48
2022-11-21T23:26:20.546Z,11.75
2022-11-21T23:28:48.596Z,9.52
2022-11-21T23:31:17.151Z,12.65
2022-11-21T23:33:45.040Z,13.23
2022-11-21T23:36:14.244Z,13.02
2022-11-21T23:38:41.964Z,7.30
2022-11-21T23:41:09.728Z,14.02
2022-11-21T23:43:37.600Z,12.52
2022-11-21T23:46:05.464Z,18.60
2022-11-21T23:48:33.263Z,17.00
2022-11-21T23:51:01.055Z,12.32
2022-11-21T23:53:30.143Z,19.52
2022-11-21T23:55:58.076Z,21.73
2022-11-21T23:58:25.868Z,19.23
